createdAt,value
2023-01-18T00:01:16.101Z,42.35
2023-01-18T00:03:44.882Z,45.60
2023-01-18T00:06:12.963Z,48.03
2023-01-18T00:08:42.604Z,43.33
2023-01-18T00:11:12.668Z,46.08
2023-01-18T00:13:41.032Z,49.55
2023-01-18T00:16:20.546Z,39.33
2023-01-18T00:18:55.732Z,48.00
2023-01-18T00:21:24.464Z,47.27
2023-01-18T00:23:52.638Z,49.47
2023-01-18T00:26:21.336Z,54.00
2023-01-18T00:28:49.258Z,49.78
2023-01-18T00:31:19.548Z,47.97
2023-01-18T00:33:51.242Z,47.00
2023-01-18T00:36:20.200Z,44.17
2023-01-18T00:38:54.417Z,47.25
2023-01-18T00:41:24.071Z,52.28
2023-01-18T00:43:53.089Z,45.80
2023-01-18T00:46:25.414Z,41.17
2023-01-18T00:48:54.346Z,42.80
2023-01-18T00:51:24.088Z,49.47
2023-01-18T00:53:52.108Z,48.80
2023-01-18T00:56:22.095Z,45.60
2023-01-18T00:58:51.252Z,50.08
2023-01-18T01:01:19.449Z,46.78
2023-01-18T01:04:06.420Z,43.22
2023-01-18T01:06:45.154Z,44.03
2023-01-18T01:09:19.036Z,41.88
2023-01-18T01:12:06.411Z,44.90
2023-01-18T01:14:57.908Z,43.22
2023-01-18T01:17:44.166Z,43.72
2023-01-18T01:23:33.395Z,50.03
2023-01-18T01:26:08.395Z,44.72
2023-01-18T01:28:40.797Z,49.63
2023-01-18T01:31:10.055Z,47.70
2023-01-18T01:33:38.066Z,42.45
2023-01-18T01:36:13.596Z,48.60
2023-01-18T01:38:41.613Z,45.95
2023-01-18T01:41:14.413Z,55.78
2023-01-18T01:43:46.297Z,51.35
2023-01-18T01:46:17.050Z,51.08
2023-01-18T01:48:45.023Z,48.33
2023-01-18T01:51:13.216Z,47.03
2023-01-18T01:53:41.455Z,47.35
2023-01-18T01:56:09.546Z,46.28
2023-01-18T01:58:38.623Z,48.72
2023-01-18T02:01:09.307Z,50.20
2023-01-18T02:03:39.395Z,50.35
2023-01-18T02:06:14.340Z,49.53
2023-01-18T02:08:43.648Z,44.53
2023-01-18T02:11:11.885Z,44.63
2023-01-18T02:13:39.969Z,45.90
2023-01-18T02:16:19.510Z,49.72
2023-01-18T02:19:32.589Z,51.22
2023-01-18T02:22:04.199Z,50.55
2023-01-18T02:24:44.696Z,47.78
2023-01-18T02:27:22.291Z,49.78
2023-01-18T02:30:02.217Z,52.22
2023-01-18T02:32:38.603Z,48.75
2023-01-18T02:35:14.614Z,49.17
2023-01-18T02:41:03.373Z,41.35
2023-01-18T02:43:50.927Z,47.08
2023-01-18T02:46:38.971Z,42.80
2023-01-18T02:49:12.591Z,51.35
2023-01-18T02:51:42.114Z,42.92
2023-01-18T02:54:10.416Z,40.72
2023-01-18T02:56:43.249Z,46.10
2023-01-18T02:59:30.103Z,46.90
2023-01-18T03:02:05.183Z,45.35
2023-01-18T03:04:36.510Z,47.22
2023-01-18T03:07:08.848Z,48.55
2023-01-18T03:09:37.222Z,48.78
2023-01-18T03:12:49.101Z,42.63
2023-01-18T03:15:27.031Z,48.78
2023-01-18T03:17:59.941Z,49.00
2023-01-18T03:20:30.676Z,45.78
2023-01-18T03:23:34.053Z,41.85
2023-01-18T03:26:02.332Z,43.20
2023-01-18T03:28:56.110Z,40.83
2023-01-18T03:31:56.529Z,42.72
2023-01-18T03:34:58.171Z,40.63
2023-01-18T03:37:41.723Z,42.00
2023-01-18T03:40:19.584Z,43.90
2023-01-18T03:43:09.719Z,48.15
2023-01-18T03:45:39.897Z,48.50
2023-01-18T03:48:08.684Z,44.05
2023-01-18T03:50:49.862Z,45.42
2023-01-18T03:53:40.529Z,47.67
2023-01-18T03:56:31.067Z,38.05
2023-01-18T03:59:00.472Z,46.28
2023-01-18T04:01:28.991Z,42.75
2023-01-18T04:04:16.887Z,40.70
2023-01-18T04:06:45.144Z,37.13
2023-01-18T04:09:15.984Z,38.20
2023-01-18T04:11:44.499Z,38.97
2023-01-18T04:14:12.452Z,41.42
2023-01-18T08:10:29.971Z,33.95
2023-01-18T08:12:58.990Z,40.20
2023-01-18T08:15:28.121Z,31.10
2023-01-18T08:17:57.370Z,37.40
2023-01-18T08:20:25.769Z,39.10
2023-01-18T08:22:57.989Z,33.10
2023-01-18T08:25:33.637Z,41.10
2023-01-18T08:28:03.343Z,34.70
2023-01-18T08:30:33.939Z,35.95
2023-01-18T08:33:05.173Z,32.20
2023-01-18T08:35:35.067Z,30.55
2023-01-18T08:38:04.873Z,36.38
2023-01-18T08:40:38.666Z,33.90
2023-01-18T08:43:06.793Z,34.10
2023-01-18T08:45:36.021Z,35.20
2023-01-18T08:48:09.731Z,32.33
2023-01-18T08:50:44.336Z,40.65
2023-01-18T08:53:13.689Z,30.50
2023-01-18T08:55:41.702Z,34.55
2023-01-18T08:58:10.468Z,29.80
2023-01-18T09:00:42.131Z,31.85
2023-01-18T09:03:18.105Z,27.38
2023-01-18T09:05:53.900Z,33.85
2023-01-18T09:08:24.846Z,35.00
2023-01-18T09:10:54.092Z,34.72
2023-01-18T09:13:23.706Z,33.67
2023-01-18T09:16:05.669Z,34.22
2023-01-18T09:18:34.090Z,37.85
2023-01-18T09:21:09.841Z,31.85
2023-01-18T09:23:49.345Z,33.72
2023-01-18T09:26:19.528Z,27.80
2023-01-18T09:28:53.389Z,34.25
2023-01-18T09:31:22.630Z,33.17
2023-01-18T09:33:53.844Z,36.40
2023-01-18T09:36:29.610Z,39.55
2023-01-18T09:38:57.592Z,36.33
2023-01-18T09:41:36.714Z,34.22
2023-01-18T09:44:18.125Z,33.70
2023-01-18T09:46:46.594Z,35.97
2023-01-18T09:49:20.627Z,34.50
2023-01-18T09:51:54.749Z,40.33
2023-01-18T09:54:58.410Z,39.15
2023-01-18T09:57:51.041Z,37.50
2023-01-18T10:00:23.009Z,36.33
2023-01-18T10:02:56.048Z,34.75
2023-01-18T10:05:25.888Z,30.77
2023-01-18T10:08:15.026Z,38.22
2023-01-18T10:10:51.707Z,38.83
2023-01-18T10:13:34.331Z,38.75
2023-01-18T10:16:03.432Z,35.47
2023-01-18T10:18:31.575Z,36.65
2023-01-18T10:21:01.906Z,32.42
2023-01-18T10:23:45.852Z,33.72
2023-01-18T10:26:26.450Z,31.20
2023-01-18T10:29:01.056Z,36.15
2023-01-18T10:31:40.844Z,36.88
2023-01-18T10:34:20.697Z,32.22
2023-01-18T10:36:55.861Z,36.10
2023-01-18T10:39:37.725Z,36.65
2023-01-18T10:42:33.149Z,39.58
2023-01-18T10:45:03.610Z,38.15
2023-01-18T10:47:34.250Z,37.67
2023-01-18T10:50:02.279Z,38.55
2023-01-18T10:52:31.784Z,36.38
2023-01-18T10:55:09.678Z,35.47
2023-01-18T10:57:42.590Z,34.47
2023-01-18T11:00:33.771Z,34.75
2023-01-18T11:03:04.993Z,37.22
2023-01-18T11:05:38.554Z,36.85
2023-01-18T11:08:31.625Z,32.88
2023-01-18T11:11:01.715Z,39.17
2023-01-18T11:13:42.663Z,33.72
2023-01-18T11:16:21.388Z,34.80
2023-01-18T11:19:02.157Z,37.83
2023-01-18T11:21:41.323Z,38.42
2023-01-18T11:24:15.618Z,40.50
2023-01-18T11:27:00.376Z,40.63
2023-01-18T11:29:39.900Z,37.30
2023-01-18T11:32:16.899Z,37.53
2023-01-18T11:34:49.169Z,37.90
2023-01-18T11:37:43.775Z,36.42
2023-01-18T11:40:30.584Z,37.85
2023-01-18T11:45:30.305Z,40.35
2023-01-18T11:48:13.768Z,44.42
2023-01-18T11:51:15.695Z,39.00
2023-01-18T16:19:50.400Z,46.28
2023-01-18T16:22:42.375Z,55.40
2023-01-18T16:25:21.101Z,45.00
2023-01-18T16:27:51.932Z,53.30
2023-01-18T16:30:22.718Z,49.05
2023-01-18T16:33:19.545Z,53.38
2023-01-18T16:35:53.169Z,48.95
2023-01-18T16:38:21.229Z,50.55
2023-01-18T16:40:50.072Z,47.33
2023-01-18T16:43:31.558Z,50.25
2023-01-18T16:45:59.484Z,47.50
2023-01-18T16:48:31.253Z,47.67
2023-01-18T16:51:01.350Z,46.40
2023-01-18T16:53:29.814Z,50.10
2023-01-18T16:57:15.163Z,48.03
2023-01-18T16:59:57.362Z,51.85
2023-01-18T17:02:25.754Z,51.20
2023-01-18T17:04:55.994Z,49.92
2023-01-18T17:07:26.637Z,37.15
2023-01-18T17:10:26.251Z,45.53
2023-01-18T17:13:00.363Z,52.55
2023-01-18T17:15:31.455Z,45.72
2023-01-18T17:18:26.614Z,50.10
2023-01-18T17:20:59.924Z,51.97
2023-01-18T17:24:12.032Z,49.67
2023-01-18T17:26:40.681Z,50.92
2023-01-18T17:29:08.951Z,50.72
2023-01-18T17:31:48.036Z,49.10
2023-01-18T17:34:27.240Z,48.50
2023-01-18T17:36:58.554Z,46.83
2023-01-18T17:39:42.730Z,48.88
2023-01-18T17:42:22.921Z,49.97
2023-01-18T17:45:03.889Z,53.63
2023-01-18T17:48:12.657Z,47.67
2023-01-18T17:51:47.007Z,49.22
2023-01-18T17:54:24.199Z,41.83
2023-01-18T17:56:53.630Z,46.83
2023-01-18T17:59:21.693Z,47.35
2023-01-18T18:01:54.711Z,42.03
2023-01-18T18:04:24.988Z,45.38
2023-01-18T18:06:58.562Z,44.92
2023-01-18T18:09:28.535Z,55.65
2023-01-18T18:11:57.466Z,52.92
2023-01-18T18:14:29.984Z,54.45
2023-01-18T18:16:59.378Z,46.60
2023-01-18T18:19:29.303Z,48.92
2023-01-18T18:21:58.586Z,46.83
2023-01-18T18:24:26.788Z,45.10
2023-01-18T18:27:08.477Z,47.72
2023-01-18T18:29:37.436Z,44.70
2023-01-18T18:32:10.285Z,43.22
2023-01-18T18:34:38.885Z,36.28
2023-01-18T18:37:08.422Z,43.50
2023-01-18T18:39:40.406Z,40.22
2023-01-18T18:42:12.158Z,36.70
2023-01-18T18:44:40.363Z,40.90
2023-01-18T18:47:10.103Z,41.30
2023-01-18T18:49:38.372Z,35.78
2023-01-18T18:52:06.432Z,43.78
2023-01-18T18:54:34.776Z,35.58
2023-01-18T18:57:05.921Z,40.08
2023-01-18T18:59:34.075Z,38.50
2023-01-18T19:02:02.362Z,38.83
2023-01-18T19:04:31.844Z,40.15
2023-01-18T19:07:00.810Z,44.17
2023-01-18T19:09:29.116Z,34.03
2023-01-18T19:11:59.606Z,42.35
2023-01-18T19:14:27.641Z,37.28
2023-01-18T19:16:57.054Z,36.80
2023-01-18T19:19:26.851Z,41.40
2023-01-18T19:21:55.031Z,35.63
2023-01-18T19:24:49.920Z,42.13
2023-01-18T19:27:17.935Z,36.25
2023-01-18T19:30:12.878Z,42.47
2023-01-18T19:32:48.185Z,44.45
2023-01-18T19:35:20.153Z,36.90
2023-01-18T19:37:48.307Z,39.80
2023-01-18T19:40:19.775Z,43.97
2023-01-18T19:42:54.510Z,36.13
2023-01-18T19:45:30.591Z,41.53
2023-01-18T19:48:10.160Z,38.05
2023-01-18T19:50:38.876Z,45.58
2023-01-18T19:53:06.799Z,45.38
2023-01-18T19:55:39.958Z,41.47
2023-01-18T19:58:10.242Z,44.03
2023-01-18T20:01:01.262Z,39.67
2023-01-18T20:03:34.959Z,41.13
2023-01-18T20:06:09.510Z,49.90
2023-01-18T20:08:38.388Z,44.83
2023-01-18T20:11:14.211Z,44.00
2023-01-18T20:13:47.496Z,50.67
2023-01-18T20:16:15.531Z,39.88
2023-01-18T20:18:45.996Z,38.10
2023-01-18T20:21:15.181Z,48.20
2023-01-18T20:23:45.551Z,45.42
2023-01-18T20:26:20.044Z,51.13
2023-01-18T20:28:54.694Z,44.35
2023-01-18T20:31:24.947Z,39.55
2023-01-18T20:33:53.658Z,39.47
2023-01-18T20:36:21.533Z,42.47
2023-01-18T20:38:54.559Z,43.95
2023-01-18T20:41:24.146Z,40.60
2023-01-18T20:43:53.067Z,43.25
2023-01-18T20:46:21.820Z,39.53
2023-01-18T20:48:51.039Z,40.92
2023-01-18T20:51:19.199Z,45.30
2023-01-18T20:53:50.141Z,41.35
2023-01-18T20:56:34.817Z,37.47
2023-01-18T20:59:03.557Z,39.13
2023-01-18T21:01:33.081Z,43.83
2023-01-18T21:04:06.448Z,42.70
2023-01-18T21:06:35.161Z,41.97
2023-01-18T21:09:05.711Z,38.67
2023-01-18T21:11:37.970Z,42.08
2023-01-18T21:14:06.214Z,42.92
2023-01-18T21:16:35.629Z,35.72
2023-01-18T21:19:03.655Z,35.22
